sensor_id;sensor_type;location;lat;lon;timestamp;temperature;humidity
70830;SHT30;58451;51.550;7.208;2023-04-03T00:00:36;0.92;77.98
70830;SHT30;58451;51.550;7.208;2023-04-03T00:02:08;0.90;78.02
70830;SHT30;58451;51.550;7.208;2023-04-03T00:03:40;0.89;78.08
70830;SHT30;58451;51.550;7.208;2023-04-03T00:05:12;0.89;78.12
70830;SHT30;58451;51.550;7.208;2023-04-03T00:06:44;0.88;78.18
70830;SHT30;58451;51.550;7.208;2023-04-03T00:08:16;0.88;78.22
70830;SHT30;58451;51.550;7.208;2023-04-03T00:09:48;0.87;78.25
70830;SHT30;58451;51.550;7.208;2023-04-03T00:11:20;0.85;78.30
70830;SHT30;58451;51.550;7.208;2023-04-03T00:12:53;0.83;78.35
70830;SHT30;58451;51.550;7.208;2023-04-03T00:14:25;0.82;78.37
70830;SHT30;58451;51.550;7.208;2023-04-03T00:15:59;0.81;78.42
70830;SHT30;58451;51.550;7.208;2023-04-03T00:17:31;0.78;78.45
70830;SHT30;58451;51.550;7.208;2023-04-03T00:19:03;0.75;78.45
70830;SHT30;58451;51.550;7.208;2023-04-03T00:20:34;0.73;78.50
70830;SHT30;58451;51.550;7.208;2023-04-03T00:22:07;0.72;78.50
70830;SHT30;58451;51.550;7.208;2023-04-03T00:23:38;0.69;78.52
70830;SHT30;58451;51.550;7.208;2023-04-03T00:25:10;0.68;78.53
70830;SHT30;58451;51.550;7.208;2023-04-03T00:26:43;0.65;78.60
70830;SHT30;58451;51.550;7.208;2023-04-03T00:28:14;0.64;78.65
70830;SHT30;58451;51.550;7.208;2023-04-03T00:29:46;0.63;78.70
70830;SHT30;58451;51.550;7.208;2023-04-03T00:31:18;0.62;78.73
70830;SHT30;58451;51.550;7.208;2023-04-03T00:32:50;0.60;78.73
70830;SHT30;58451;51.550;7.208;2023-04-03T00:34:24;0.59;78.77
70830;SHT30;58451;51.550;7.208;2023-04-03T00:35:56;0.58;78.82
70830;SHT30;58451;51.550;7.208;2023-04-03T00:37:28;0.57;78.85
70830;SHT30;58451;51.550;7.208;2023-04-03T00:39:01;0.56;78.90
70830;SHT30;58451;51.550;7.208;2023-04-03T00:40:34;0.56;78.93
70830;SHT30;58451;51.550;7.208;2023-04-03T00:42:13;0.55;79.00
70830;SHT30;58451;51.550;7.208;2023-04-03T00:43:44;0.54;79.02
70830;SHT30;58451;51.550;7.208;2023-04-03T00:45:36;0.52;79.07
70830;SHT30;58451;51.550;7.208;2023-04-03T00:47:11;0.51;79.03
70830;SHT30;58451;51.550;7.208;2023-04-03T00:48:48;0.49;79.07
70830;SHT30;58451;51.550;7.208;2023-04-03T00:50:20;0.47;79.10
70830;SHT30;58451;51.550;7.208;2023-04-03T00:51:53;0.47;79.12
70830;SHT30;58451;51.550;7.208;2023-04-03T00:53:30;0.44;79.17
70830;SHT30;58451;51.550;7.208;2023-04-03T00:55:08;0.43;79.20
70830;SHT30;58451;51.550;7.208;2023-04-03T00:56:41;0.42;79.20
70830;SHT30;58451;51.550;7.208;2023-04-03T00:58:15;0.41;79.23
70830;SHT30;58451;51.550;7.208;2023-04-03T00:59:52;0.41;79.23
70830;SHT30;58451;51.550;7.208;2023-04-03T01:01:31;0.40;79.30
70830;SHT30;58451;51.550;7.208;2023-04-03T01:03:03;0.40;79.35
70830;SHT30;58451;51.550;7.208;2023-04-03T01:04:36;0.40;79.40
70830;SHT30;58451;51.550;7.208;2023-04-03T01:06:12;0.40;79.43
70830;SHT30;58451;51.550;7.208;2023-04-03T01:07:49;0.39;79.47
70830;SHT30;58451;51.550;7.208;2023-04-03T01:09:23;0.40;79.50
70830;SHT30;58451;51.550;7.208;2023-04-03T01:10:55;0.40;79.57
70830;SHT30;58451;51.550;7.208;2023-04-03T01:12:29;0.40;79.52
70830;SHT30;58451;51.550;7.208;2023-04-03T01:14:05;0.39;79.53
70830;SHT30;58451;51.550;7.208;2023-04-03T01:15:37;0.40;79.57
70830;SHT30;58451;51.550;7.208;2023-04-03T01:17:32;0.41;79.60
70830;SHT30;58451;51.550;7.208;2023-04-03T01:19:17;0.41;79.62
70830;SHT30;58451;51.550;7.208;2023-04-03T01:25:04;0.43;79.70
70830;SHT30;58451;51.550;7.208;2023-04-03T01:26:36;0.43;79.62
70830;SHT30;58451;51.550;7.208;2023-04-03T01:28:10;0.42;79.60
70830;SHT30;58451;51.550;7.208;2023-04-03T01:29:49;0.44;79.60
70830;SHT30;58451;51.550;7.208;2023-04-03T01:33:21;0.47;79.62
70830;SHT30;58451;51.550;7.208;2023-04-03T01:34:53;0.48;79.63
70830;SHT30;58451;51.550;7.208;2023-04-03T01:36:29;0.51;79.65
70830;SHT30;58451;51.550;7.208;2023-04-03T01:38:03;0.50;79.60
70830;SHT30;58451;51.550;7.208;2023-04-03T01:39:34;0.50;79.60
70830;SHT30;58451;51.550;7.208;2023-04-03T01:41:06;0.48;79.62
70830;SHT30;58451;51.550;7.208;2023-04-03T01:42:38;0.47;79.60
70830;SHT30;58451;51.550;7.208;2023-04-03T01:44:10;0.47;79.62
70830;SHT30;58451;51.550;7.208;2023-04-03T01:45:42;0.47;79.70
70830;SHT30;58451;51.550;7.208;2023-04-03T01:47:14;0.47;79.67
70830;SHT30;58451;51.550;7.208;2023-04-03T01:48:47;0.48;79.70
70830;SHT30;58451;51.550;7.208;2023-04-03T01:50:20;0.48;79.72
70830;SHT30;58451;51.550;7.208;2023-04-03T01:51:52;0.48;79.67
70830;SHT30;58451;51.550;7.208;2023-04-03T01:53:23;0.48;79.67
70830;SHT30;58451;51.550;7.208;2023-04-03T01:54:55;0.48;79.65
70830;SHT30;58451;51.550;7.208;2023-04-03T01:56:27;0.48;79.68
70830;SHT30;58451;51.550;7.208;2023-04-03T01:57:59;0.49;79.75
70830;SHT30;58451;51.550;7.208;2023-04-03T01:59:31;0.51;79.70
70830;SHT30;58451;51.550;7.208;2023-04-03T02:01:03;0.53;79.68
70830;SHT30;58451;51.550;7.208;2023-04-03T02:02:36;0.53;79.68
70830;SHT30;58451;51.550;7.208;2023-04-03T02:04:08;0.54;79.68
70830;SHT30;58451;51.550;7.208;2023-04-03T02:05:40;0.55;79.63
70830;SHT30;58451;51.550;7.208;2023-04-03T02:07:12;0.56;79.62
70830;SHT30;58451;51.550;7.208;2023-04-03T02:08:44;0.56;79.60
70830;SHT30;58451;51.550;7.208;2023-04-03T02:10:16;0.56;79.67
70830;SHT30;58451;51.550;7.208;2023-04-03T02:11:48;0.56;79.63
70830;SHT30;58451;51.550;7.208;2023-04-03T02:13:19;0.57;79.65
70830;SHT30;58451;51.550;7.208;2023-04-03T02:14:51;0.56;79.63
70830;SHT30;58451;51.550;7.208;2023-04-03T02:16:23;0.57;79.70
70830;SHT30;58451;51.550;7.208;2023-04-03T02:17:55;0.56;79.68
70830;SHT30;58451;51.550;7.208;2023-04-03T02:19:28;0.57;79.63
70830;SHT30;58451;51.550;7.208;2023-04-03T02:21:00;0.56;79.63
70830;SHT30;58451;51.550;7.208;2023-04-03T02:22:32;0.57;79.58
70830;SHT30;58451;51.550;7.208;2023-04-03T02:24:05;0.56;79.62
70830;SHT30;58451;51.550;7.208;2023-04-03T02:25:38;0.55;79.63
70830;SHT30;58451;51.550;7.208;2023-04-03T02:27:10;0.56;79.65
70830;SHT30;58451;51.550;7.208;2023-04-03T02:28:42;0.55;79.63
70830;SHT30;58451;51.550;7.208;2023-04-03T02:30:14;0.54;79.67
70830;SHT30;58451;51.550;7.208;2023-04-03T02:31:46;0.56;79.68
70830;SHT30;58451;51.550;7.208;2023-04-03T02:33:18;0.55;79.70
70830;SHT30;58451;51.550;7.208;2023-04-03T02:34:50;0.53;79.75
70830;SHT30;58451;51.550;7.208;2023-04-03T02:36:22;0.53;79.75
70830;SHT30;58451;51.550;7.208;2023-04-03T02:37:58;0.54;79.77
70830;SHT30;58451;51.550;7.208;2023-04-03T02:39:30;0.55;79.77
70830;SHT30;58451;51.550;7.208;2023-04-03T02:41:03;0.54;79.75
70830;SHT30;58451;51.550;7.208;2023-04-03T02:42:38;0.53;79.80
70830;SHT30;58451;51.550;7.208;2023-04-03T02:44:11;0.52;79.80
70830;SHT30;58451;51.550;7.208;2023-04-03T02:45:44;0.54;79.83
70830;SHT30;58451;51.550;7.208;2023-04-03T02:47:16;0.54;79.83
70830;SHT30;58451;51.550;7.208;2023-04-03T02:48:48;0.55;79.85
70830;SHT30;58451;51.550;7.208;2023-04-03T02:50:20;0.56;79.90
70830;SHT30;58451;51.550;7.208;2023-04-03T02:51:52;0.56;79.85
70830;SHT30;58451;51.550;7.208;2023-04-03T02:53:24;0.56;79.83
70830;SHT30;58451;51.550;7.208;2023-04-03T02:54:56;0.55;79.82
70830;SHT30;58451;51.550;7.208;2023-04-03T02:56:28;0.54;79.83
70830;SHT30;58451;51.550;7.208;2023-04-03T02:57:59;0.54;79.77
70830;SHT30;58451;51.550;7.208;2023-04-03T02:59:31;0.54;79.87
70830;SHT30;58451;51.550;7.208;2023-04-03T03:01:03;0.56;79.83
70830;SHT30;58451;51.550;7.208;2023-04-03T03:02:35;0.57;79.85
70830;SHT30;58451;51.550;7.208;2023-04-03T03:04:07;0.57;79.82
70830;SHT30;58451;51.550;7.208;2023-04-03T03:05:39;0.57;79.83
70830;SHT30;58451;51.550;7.208;2023-04-03T03:07:11;0.57;79.85
70830;SHT30;58451;51.550;7.208;2023-04-03T03:08:42;0.58;79.82
70830;SHT30;58451;51.550;7.208;2023-04-03T03:10:15;0.58;79.80
70830;SHT30;58451;51.550;7.208;2023-04-03T03:11:49;0.57;79.80
70830;SHT30;58451;51.550;7.208;2023-04-03T03:13:21;0.57;79.80
70830;SHT30;58451;51.550;7.208;2023-04-03T03:14:53;0.55;79.90
70830;SHT30;58451;51.550;7.208;2023-04-03T03:16:25;0.57;79.88
70830;SHT30;58451;51.550;7.208;2023-04-03T03:17:57;0.57;79.78
70830;SHT30;58451;51.550;7.208;2023-04-03T03:19:30;0.56;79.80
70830;SHT30;58451;51.550;7.208;2023-04-03T03:21:02;0.54;79.82
70830;SHT30;58451;51.550;7.208;2023-04-03T03:22:36;0.53;79.90
70830;SHT30;58451;51.550;7.208;2023-04-03T03:24:08;0.53;79.90
70830;SHT30;58451;51.550;7.208;2023-04-03T03:25:40;0.52;79.88
70830;SHT30;58451;51.550;7.208;2023-04-03T03:27:12;0.52;79.85
70830;SHT30;58451;51.550;7.208;2023-04-03T03:28:43;0.52;79.90
70830;SHT30;58451;51.550;7.208;2023-04-03T03:30:18;0.51;79.90
70830;SHT30;58451;51.550;7.208;2023-04-03T03:31:50;0.50;79.92
70830;SHT30;58451;51.550;7.208;2023-04-03T03:33:22;0.50;79.90
70830;SHT30;58451;51.550;7.208;2023-04-03T03:34:53;0.49;79.92
70830;SHT30;58451;51.550;7.208;2023-04-03T03:36:25;0.48;79.88
70830;SHT30;58451;51.550;7.208;2023-04-03T03:37:57;0.46;79.92
70830;SHT30;58451;51.550;7.208;2023-04-03T03:39:29;0.47;79.97
70830;SHT30;58451;51.550;7.208;2023-04-03T03:41:01;0.47;79.95
70830;SHT30;58451;51.550;7.208;2023-04-03T03:42:33;0.46;79.95
70830;SHT30;58451;51.550;7.208;2023-04-03T03:44:06;0.45;79.95
70830;SHT30;58451;51.550;7.208;2023-04-03T03:45:38;0.44;79.97
70830;SHT30;58451;51.550;7.208;2023-04-03T03:47:10;0.43;79.97
70830;SHT30;58451;51.550;7.208;2023-04-03T03:48:42;0.43;79.98
70830;SHT30;58451;51.550;7.208;2023-04-03T03:50:15;0.41;80.07
70830;SHT30;58451;51.550;7.208;2023-04-03T03:51:47;0.41;80.13
70830;SHT30;58451;51.550;7.208;2023-04-03T03:53:19;0.41;80.18
70830;SHT30;58451;51.550;7.208;2023-04-03T03:54:51;0.40;80.12
70830;SHT30;58451;51.550;7.208;2023-04-03T03:56:23;0.39;80.15
70830;SHT30;58451;51.550;7.208;2023-04-03T03:57:55;0.38;80.30
70830;SHT30;58451;51.550;7.208;2023-04-03T03:59:27;0.39;80.25
70830;SHT30;58451;51.550;7.208;2023-04-03T04:01:03;0.38;80.25
70830;SHT30;58451;51.550;7.208;2023-04-03T04:02:38;0.38;80.22
70830;SHT30;58451;51.550;7.208;2023-04-03T04:04:10;0.37;80.20
70830;SHT30;58451;51.550;7.208;2023-04-03T04:05:42;0.36;80.23
70830;SHT30;58451;51.550;7.208;2023-04-03T04:07:15;0.35;80.18
70830;SHT30;58451;51.550;7.208;2023-04-03T04:08:47;0.33;80.23
70830;SHT30;58451;51.550;7.208;2023-04-03T04:10:19;0.31;80.13
70830;SHT30;58451;51.550;7.208;2023-04-03T04:11:51;0.30;80.17
70830;SHT30;58451;51.550;7.208;2023-04-03T04:13:24;0.29;80.18
70830;SHT30;58451;51.550;7.208;2023-04-03T04:14:56;0.28;80.20
70830;SHT30;58451;51.550;7.208;2023-04-03T04:16:29;0.25;80.15
70830;SHT30;58451;51.550;7.208;2023-04-03T04:18:03;0.23;80.20
70830;SHT30;58451;51.550;7.208;2023-04-03T04:19:35;0.22;80.18
70830;SHT30;58451;51.550;7.208;2023-04-03T04:21:07;0.19;80.18
70830;SHT30;58451;51.550;7.208;2023-04-03T04:22:39;0.18;80.18
70830;SHT30;58451;51.550;7.208;2023-04-03T04:24:11;0.16;80.22
70830;SHT30;58451;51.550;7.208;2023-04-03T04:25:46;0.13;80.25
70830;SHT30;58451;51.550;7.208;2023-04-03T04:27:20;0.12;80.38
70830;SHT30;58451;51.550;7.208;2023-04-03T04:28:52;0.11;80.48
70830;SHT30;58451;51.550;7.208;2023-04-03T04:30:24;0.13;80.45
70830;SHT30;58451;51.550;7.208;2023-04-03T04:31:58;0.12;80.45
70830;SHT30;58451;51.550;7.208;2023-04-03T04:33:30;0.12;80.50
70830;SHT30;58451;51.550;7.208;2023-04-03T04:35:03;0.11;80.67
70830;SHT30;58451;51.550;7.208;2023-04-03T04:36:37;0.12;80.75
70830;SHT30;58451;51.550;7.208;2023-04-03T04:38:09;0.13;80.67
70830;SHT30;58451;51.550;7.208;2023-04-03T04:39:41;0.14;80.80
70830;SHT30;58451;51.550;7.208;2023-04-03T04:41:13;0.14;80.90
70830;SHT30;58451;51.550;7.208;2023-04-03T04:42:45;0.14;80.82
70830;SHT30;58451;51.550;7.208;2023-04-03T04:44:17;0.16;80.83
70830;SHT30;58451;51.550;7.208;2023-04-03T04:45:48;0.14;80.85
70830;SHT30;58451;51.550;7.208;2023-04-03T04:47:22;0.14;80.78
70830;SHT30;58451;51.550;7.208;2023-04-03T04:48:54;0.13;80.93
70830;SHT30;58451;51.550;7.208;2023-04-03T04:50:27;0.14;80.95
70830;SHT30;58451;51.550;7.208;2023-04-03T04:51:59;0.14;80.93
70830;SHT30;58451;51.550;7.208;2023-04-03T04:53:33;0.13;80.87
70830;SHT30;58451;51.550;7.208;2023-04-03T04:55:05;0.13;80.80
70830;SHT30;58451;51.550;7.208;2023-04-03T04:56:38;0.13;80.88
70830;SHT30;58451;51.550;7.208;2023-04-03T04:58:10;0.12;80.83
70830;SHT30;58451;51.550;7.208;2023-04-03T04:59:42;0.11;80.83
70830;SHT30;58451;51.550;7.208;2023-04-03T05:01:13;0.09;80.83
70830;SHT30;58451;51.550;7.208;2023-04-03T05:02:55;0.08;80.95
70830;SHT30;58451;51.550;7.208;2023-04-03T05:04:27;0.09;80.98
70830;SHT30;58451;51.550;7.208;2023-04-03T05:06:03;0.09;81.00
70830;SHT30;58451;51.550;7.208;2023-04-03T05:07:36;0.08;81.00
70830;SHT30;58451;51.550;7.208;2023-04-03T05:09:09;0.09;81.08
70830;SHT30;58451;51.550;7.208;2023-04-03T05:10:41;0.10;81.02
70830;SHT30;58451;51.550;7.208;2023-04-03T05:12:14;0.10;81.08
70830;SHT30;58451;51.550;7.208;2023-04-03T05:13:50;0.10;81.02
70830;SHT30;58451;51.550;7.208;2023-04-03T05:15:22;0.11;81.05
70830;SHT30;58451;51.550;7.208;2023-04-03T05:16:55;0.12;81.13
70830;SHT30;58451;51.550;7.208;2023-04-03T05:18:28;0.12;81.13
70830;SHT30;58451;51.550;7.208;2023-04-03T05:20:02;0.13;81.05
70830;SHT30;58451;51.550;7.208;2023-04-03T05:21:37;0.14;81.05
70830;SHT30;58451;51.550;7.208;2023-04-03T05:23:12;0.14;81.15
70830;SHT30;58451;51.550;7.208;2023-04-03T05:24:44;0.16;81.18
70830;SHT30;58451;51.550;7.208;2023-04-03T05:26:16;0.17;81.30
70830;SHT30;58451;51.550;7.208;2023-04-03T05:27:50;0.19;81.35
70830;SHT30;58451;51.550;7.208;2023-04-03T05:29:22;0.22;81.23
70830;SHT30;58451;51.550;7.208;2023-04-03T05:30:58;0.23;81.27
70830;SHT30;58451;51.550;7.208;2023-04-03T05:32:36;0.26;81.25
70830;SHT30;58451;51.550;7.208;2023-04-03T05:34:21;0.28;81.23
70830;SHT30;58451;51.550;7.208;2023-04-03T05:35:54;0.31;81.15
70830;SHT30;58451;51.550;7.208;2023-04-03T05:37:30;0.32;81.12
70830;SHT30;58451;51.550;7.208;2023-04-03T05:39:02;0.34;81.08
70830;SHT30;58451;51.550;7.208;2023-04-03T05:40:35;0.37;81.23
70830;SHT30;58451;51.550;7.208;2023-04-03T05:42:07;0.40;81.32
70830;SHT30;58451;51.550;7.208;2023-04-03T05:43:39;0.44;81.20
70830;SHT30;58451;51.550;7.208;2023-04-03T05:45:12;0.47;81.27
70830;SHT30;58451;51.550;7.208;2023-04-03T05:46:44;0.50;81.18
70830;SHT30;58451;51.550;7.208;2023-04-03T05:48:16;0.56;81.23
70830;SHT30;58451;51.550;7.208;2023-04-03T05:49:48;0.58;81.23
70830;SHT30;58451;51.550;7.208;2023-04-03T05:51:24;0.63;81.12
70830;SHT30;58451;51.550;7.208;2023-04-03T05:53:04;0.67;80.97
70830;SHT30;58451;51.550;7.208;2023-04-03T05:54:37;0.71;80.98
70830;SHT30;58451;51.550;7.208;2023-04-03T05:56:14;0.77;80.97
70830;SHT30;58451;51.550;7.208;2023-04-03T05:57:47;0.81;80.93
70830;SHT30;58451;51.550;7.208;2023-04-03T05:59:19;0.86;80.85
70830;SHT30;58451;51.550;7.208;2023-04-03T06:00:53;0.89;80.80
70830;SHT30;58451;51.550;7.208;2023-04-03T06:02:25;0.94;80.52
70830;SHT30;58451;51.550;7.208;2023-04-03T06:03:58;1.01;80.57
70830;SHT30;58451;51.550;7.208;2023-04-03T06:05:32;1.05;80.57
70830;SHT30;58451;51.550;7.208;2023-04-03T06:07:04;1.11;80.60
70830;SHT30;58451;51.550;7.208;2023-04-03T06:08:36;1.16;80.42
70830;SHT30;58451;51.550;7.208;2023-04-03T06:10:10;1.22;80.10
70830;SHT30;58451;51.550;7.208;2023-04-03T06:11:44;1.28;79.72
70830;SHT30;58451;51.550;7.208;2023-04-03T06:13:17;1.35;79.80
70830;SHT30;58451;51.550;7.208;2023-04-03T06:14:49;1.41;79.82
70830;SHT30;58451;51.550;7.208;2023-04-03T06:16:21;1.46;79.55
70830;SHT30;58451;51.550;7.208;2023-04-03T06:17:53;1.53;78.83
70830;SHT30;58451;51.550;7.208;2023-04-03T06:19:25;1.60;79.00
70830;SHT30;58451;51.550;7.208;2023-04-03T06:20:59;1.66;78.98
70830;SHT30;58451;51.550;7.208;2023-04-03T06:22:32;1.73;78.83
70830;SHT30;58451;51.550;7.208;2023-04-03T06:24:05;1.79;78.70
70830;SHT30;58451;51.550;7.208;2023-04-03T06:25:38;1.83;78.03
70830;SHT30;58451;51.550;7.208;2023-04-03T06:27:11;1.87;77.37
70830;SHT30;58451;51.550;7.208;2023-04-03T06:28:43;1.94;77.88
70830;SHT30;58451;51.550;7.208;2023-04-03T06:30:15;2.01;77.07
70830;SHT30;58451;51.550;7.208;2023-04-03T06:31:47;2.06;77.72
70830;SHT30;58451;51.550;7.208;2023-04-03T06:33:21;2.11;77.25
70830;SHT30;58451;51.550;7.208;2023-04-03T06:34:53;2.16;77.52
70830;SHT30;58451;51.550;7.208;2023-04-03T06:36:25;2.22;77.40
70830;SHT30;58451;51.550;7.208;2023-04-03T06:37:56;2.27;77.43
70830;SHT30;58451;51.550;7.208;2023-04-03T06:39:28;2.33;77.18
70830;SHT30;58451;51.550;7.208;2023-04-03T06:41:00;2.39;77.12
70830;SHT30;58451;51.550;7.208;2023-04-03T06:42:32;2.45;77.15
70830;SHT30;58451;51.550;7.208;2023-04-03T06:44:11;2.50;76.88
70830;SHT30;58451;51.550;7.208;2023-04-03T06:45:44;2.55;76.88
70830;SHT30;58451;51.550;7.208;2023-04-03T06:47:17;2.61;77.00
70830;SHT30;58451;51.550;7.208;2023-04-03T06:48:49;2.66;75.87
70830;SHT30;58451;51.550;7.208;2023-04-03T06:50:21;2.66;73.33
70830;SHT30;58451;51.550;7.208;2023-04-03T06:51:53;2.78;75.22
70830;SHT30;58451;51.550;7.208;2023-04-03T06:53:25;2.83;74.25
70830;SHT30;58451;51.550;7.208;2023-04-03T06:54:57;2.89;74.22
70830;SHT30;58451;51.550;7.208;2023-04-03T06:56:30;2.95;74.48
70830;SHT30;58451;51.550;7.208;2023-04-03T06:58:04;3.02;74.97
70830;SHT30;58451;51.550;7.208;2023-04-03T06:59:38;3.10;74.53
70830;SHT30;58451;51.550;7.208;2023-04-03T07:01:10;3.17;73.57
70830;SHT30;58451;51.550;7.208;2023-04-03T07:02:45;3.20;73.00
70830;SHT30;58451;51.550;7.208;2023-04-03T07:04:18;3.24;72.97
70830;SHT30;58451;51.550;7.208;2023-04-03T07:05:51;3.29;72.03
70830;SHT30;58451;51.550;7.208;2023-04-03T07:07:25;3.32;72.77
70830;SHT30;58451;51.550;7.208;2023-04-03T07:08:57;3.35;71.33
70830;SHT30;58451;51.550;7.208;2023-04-03T07:10:29;3.38;71.27
70830;SHT30;58451;51.550;7.208;2023-04-03T07:12:02;3.43;70.08
70830;SHT30;58451;51.550;7.208;2023-04-03T07:13:34;3.51;70.30
70830;SHT30;58451;51.550;7.208;2023-04-03T07:15:09;3.56;70.07
70830;SHT30;58451;51.550;7.208;2023-04-03T07:16:41;3.62;70.77
70830;SHT30;58451;51.550;7.208;2023-04-03T07:18:13;3.66;70.98
70830;SHT30;58451;51.550;7.208;2023-04-03T07:19:48;3.68;70.38
70830;SHT30;58451;51.550;7.208;2023-04-03T07:21:20;3.70;70.20
70830;SHT30;58451;51.550;7.208;2023-04-03T07:22:53;3.76;70.90
70830;SHT30;58451;51.550;7.208;2023-04-03T07:24:27;3.81;69.82
70830;SHT30;58451;51.550;7.208;2023-04-03T07:25:58;3.82;68.73
70830;SHT30;58451;51.550;7.208;2023-04-03T07:27:30;3.82;70.23
70830;SHT30;58451;51.550;7.208;2023-04-03T07:29:03;3.84;69.43
70830;SHT30;58451;51.550;7.208;2023-04-03T07:30:35;3.89;69.40
70830;SHT30;58451;51.550;7.208;2023-04-03T07:32:40;4.00;70.50
70830;SHT30;58451;51.550;7.208;2023-04-03T07:34:12;4.08;71.13
70830;SHT30;58451;51.550;7.208;2023-04-03T07:35:45;4.14;70.05
70830;SHT30;58451;51.550;7.208;2023-04-03T07:37:18;4.22;70.07
70830;SHT30;58451;51.550;7.208;2023-04-03T07:38:50;4.29;70.15
70830;SHT30;58451;51.550;7.208;2023-04-03T07:40:22;4.34;68.55
70830;SHT30;58451;51.550;7.208;2023-04-03T07:41:54;4.34;69.08
70830;SHT30;58451;51.550;7.208;2023-04-03T07:43:39;4.38;68.40
70830;SHT30;58451;51.550;7.208;2023-04-03T07:45:12;4.47;69.20
70830;SHT30;58451;51.550;7.208;2023-04-03T07:46:44;4.49;67.57
70830;SHT30;58451;51.550;7.208;2023-04-03T07:48:19;4.47;67.78
70830;SHT30;58451;51.550;7.208;2023-04-03T07:49:55;4.49;68.87
70830;SHT30;58451;51.550;7.208;2023-04-03T07:51:28;4.53;68.38
70830;SHT30;58451;51.550;7.208;2023-04-03T07:53:02;4.51;66.20
70830;SHT30;58451;51.550;7.208;2023-04-03T07:54:34;4.53;66.60
70830;SHT30;58451;51.550;7.208;2023-04-03T07:56:07;4.53;67.40
70830;SHT30;58451;51.550;7.208;2023-04-03T07:57:39;4.57;67.23
70830;SHT30;58451;51.550;7.208;2023-04-03T07:59:12;4.61;67.15
70830;SHT30;58451;51.550;7.208;2023-04-03T08:00:45;4.68;67.38
70830;SHT30;58451;51.550;7.208;2023-04-03T08:02:17;4.74;67.08
70830;SHT30;58451;51.550;7.208;2023-04-03T08:03:49;4.78;66.57
70830;SHT30;58451;51.550;7.208;2023-04-03T08:05:22;4.78;66.02
70830;SHT30;58451;51.550;7.208;2023-04-03T08:06:54;4.86;66.92
70830;SHT30;58451;51.550;7.208;2023-04-03T08:08:26;4.91;65.62
70830;SHT30;58451;51.550;7.208;2023-04-03T08:10:00;4.94;64.92
70830;SHT30;58451;51.550;7.208;2023-04-03T08:11:32;4.99;66.43
70830;SHT30;58451;51.550;7.208;2023-04-03T08:13:04;5.10;67.13
70830;SHT30;58451;51.550;7.208;2023-04-03T08:14:37;5.19;66.60
70830;SHT30;58451;51.550;7.208;2023-04-03T08:16:10;5.26;66.32
70830;SHT30;58451;51.550;7.208;2023-04-03T08:17:47;5.30;64.57
70830;SHT30;58451;51.550;7.208;2023-04-03T08:19:21;5.37;65.75
70830;SHT30;58451;51.550;7.208;2023-04-03T08:20:57;5.41;64.55
70830;SHT30;58451;51.550;7.208;2023-04-03T08:22:29;5.41;64.87
70830;SHT30;58451;51.550;7.208;2023-04-03T08:24:04;5.42;65.85
70830;SHT30;58451;51.550;7.208;2023-04-03T08:25:39;5.47;65.55
70830;SHT30;58451;51.550;7.208;2023-04-03T08:27:15;5.54;64.63
70830;SHT30;58451;51.550;7.208;2023-04-03T08:28:47;5.55;63.87
70830;SHT30;58451;51.550;7.208;2023-04-03T08:30:20;5.55;64.18
70830;SHT30;58451;51.550;7.208;2023-04-03T08:31:52;5.55;64.15
70830;SHT30;58451;51.550;7.208;2023-04-03T08:33:25;5.64;64.33
70830;SHT30;58451;51.550;7.208;2023-04-03T08:34:57;5.68;63.38
70830;SHT30;58451;51.550;7.208;2023-04-03T08:36:32;5.70;63.73
70830;SHT30;58451;51.550;7.208;2023-04-03T08:38:04;5.72;62.55
70830;SHT30;58451;51.550;7.208;2023-04-03T08:39:38;5.72;63.93
70830;SHT30;58451;51.550;7.208;2023-04-03T08:41:20;5.76;63.27
70830;SHT30;58451;51.550;7.208;2023-04-03T08:43:18;5.83;63.75
70830;SHT30;58451;51.550;7.208;2023-04-03T08:47:41;5.96;61.62
70830;SHT30;58451;51.550;7.208;2023-04-03T08:49:34;6.00;62.55
70830;SHT30;58451;51.550;7.208;2023-04-03T08:51:20;6.05;60.43
70830;SHT30;58451;51.550;7.208;2023-04-03T08:52:58;6.12;60.75
70830;SHT30;58451;51.550;7.208;2023-04-03T08:54:37;6.12;59.08
70830;SHT30;58451;51.550;7.208;2023-04-03T08:56:36;6.13;58.00
70830;SHT30;58451;51.550;7.208;2023-04-03T09:00:01;6.16;57.07
70830;SHT30;58451;51.550;7.208;2023-04-03T09:01:48;6.19;56.57
70830;SHT30;58451;51.550;7.208;2023-04-03T09:03:22;6.27;56.50
70830;SHT30;58451;51.550;7.208;2023-04-03T09:04:55;6.36;58.48
70830;SHT30;58451;51.550;7.208;2023-04-03T09:06:31;6.43;57.65
70830;SHT30;58451;51.550;7.208;2023-04-03T09:10:34;6.47;56.62
70830;SHT30;58451;51.550;7.208;2023-04-03T09:12:27;6.51;56.67
70830;SHT30;58451;51.550;7.208;2023-04-03T09:16:43;6.58;56.58
70830;SHT30;58451;51.550;7.208;2023-04-03T09:18:28;6.71;54.97
70830;SHT30;58451;51.550;7.208;2023-04-03T09:20:36;6.77;57.07
70830;SHT30;58451;51.550;7.208;2023-04-03T09:22:09;6.79;51.10
70830;SHT30;58451;51.550;7.208;2023-04-03T09:23:57;6.90;52.48
70830;SHT30;58451;51.550;7.208;2023-04-03T09:25:36;6.98;52.78
70830;SHT30;58451;51.550;7.208;2023-04-03T09:27:11;7.07;53.60
70830;SHT30;58451;51.550;7.208;2023-04-03T09:28:44;7.16;53.28
70830;SHT30;58451;51.550;7.208;2023-04-03T09:30:22;7.18;51.45
70830;SHT30;58451;51.550;7.208;2023-04-03T09:31:59;7.11;48.72
70830;SHT30;58451;51.550;7.208;2023-04-03T09:33:34;7.11;50.88
70830;SHT30;58451;51.550;7.208;2023-04-03T09:37:00;7.20;49.43
70830;SHT30;58451;51.550;7.208;2023-04-03T09:38:38;7.20;50.37
70830;SHT30;58451;51.550;7.208;2023-04-03T09:40:29;7.22;49.87
70830;SHT30;58451;51.550;7.208;2023-04-03T09:42:20;7.25;49.68
70830;SHT30;58451;51.550;7.208;2023-04-03T09:43:56;7.25;49.00
70830;SHT30;58451;51.550;7.208;2023-04-03T09:45:30;7.32;49.20
70830;SHT30;58451;51.550;7.208;2023-04-03T09:47:29;7.43;50.50
70830;SHT30;58451;51.550;7.208;2023-04-03T09:49:04;7.45;47.82
70830;SHT30;58451;51.550;7.208;2023-04-03T09:52:33;7.50;48.38
70830;SHT30;58451;51.550;7.208;2023-04-03T09:54:25;7.51;47.62
70830;SHT30;58451;51.550;7.208;2023-04-03T09:57:48;7.64;47.35
70830;SHT30;58451;51.550;7.208;2023-04-03T09:59:25;7.69;47.83
70830;SHT30;58451;51.550;7.208;2023-04-03T10:00:58;7.78;49.17
70830;SHT30;58451;51.550;7.208;2023-04-03T10:04:18;7.88;47.18
70830;SHT30;58451;51.550;7.208;2023-04-03T10:05:53;7.85;46.07
70830;SHT30;58451;51.550;7.208;2023-04-03T10:07:31;7.89;45.52
70830;SHT30;58451;51.550;7.208;2023-04-03T10:09:17;7.85;46.10
70830;SHT30;58451;51.550;7.208;2023-04-03T10:11:08;7.89;45.10
70830;SHT30;58451;51.550;7.208;2023-04-03T10:16:25;7.94;45.98
70830;SHT30;58451;51.550;7.208;2023-04-03T10:18:40;7.97;47.50
70830;SHT30;58451;51.550;7.208;2023-04-03T10:32:27;8.34;45.25
70830;SHT30;58451;51.550;7.208;2023-04-03T10:34:35;8.41;45.78
70830;SHT30;58451;51.550;7.208;2023-04-03T10:47:07;8.49;45.98
70830;SHT30;58451;51.550;7.208;2023-04-03T10:57:03;8.57;43.80
70830;SHT30;58451;51.550;7.208;2023-04-03T10:58:48;8.57;43.50
70830;SHT30;58451;51.550;7.208;2023-04-03T11:00:50;8.56;44.02
70830;SHT30;58451;51.550;7.208;2023-04-03T11:04:03;8.57;43.42
70830;SHT30;58451;51.550;7.208;2023-04-03T11:05:45;8.68;44.32